CheckWX is a tool to help pilots better visualize weather data.  It is not intended as a substitute for an official pre-flight weather briefing.

01:37:17 UTC

O32 METAR
Reedley Municipal Airport
Reedley, California, USA
Current

27 mins ago

KO32 060110Z AUTO 00000KT 10SM 15/10 A3008 RMK AO2
Observed
Dec-6 @ 01:10 UTC
Visibility
10 SM
Temperature
15°C / 59°F
Dewpoint
10°C / 50°F
Humidity
72%
Altimeter
30.08" Hg
Pressure
1018.62 hPa
Previous

42 mins ago

KO32 060055Z AUTO 00000KT 8SM 15/10 A3008 RMK AO2
Observed
Dec-6 @ 00:55 UTC
Visibility
8 SM
Temperature
15°C / 59°F
Dewpoint
10°C / 50°F
Humidity
72%
Altimeter
30.08" Hg
Pressure
1018.62 hPa
Previous

1 hour ago

KO32 060035Z AUTO 00000KT 10SM 17/10 A3007 RMK AO2
Observed
Dec-6 @ 00:35 UTC
Visibility
10 SM
Temperature
17°C / 63°F
Dewpoint
10°C / 50°F
Humidity
64%
Altimeter
30.07" Hg
Pressure
1018.32 hPa